sensor_id;sensor_type;location;lat;lon;timestamp;temperature;humidity
37528;DHT22;23372;52.050;4.810;2023-01-04T00:00:41;9.00;99.90
37528;DHT22;23372;52.050;4.810;2023-01-04T00:03:07;9.00;99.90
37528;DHT22;23372;52.050;4.810;2023-01-04T00:05:32;9.00;99.90
37528;DHT22;23372;52.050;4.810;2023-01-04T00:07:58;8.90;99.90
37528;DHT22;23372;52.050;4.810;2023-01-04T00:10:23;8.90;99.90
37528;DHT22;23372;52.050;4.810;2023-01-04T00:12:49;9.00;99.90
37528;DHT22;23372;52.050;4.810;2023-01-04T00:15:14;9.00;99.90
37528;DHT22;23372;52.050;4.810;2023-01-04T00:17:40;9.00;99.90
37528;DHT22;23372;52.050;4.810;2023-01-04T00:20:06;9.00;99.90
37528;DHT22;23372;52.050;4.810;2023-01-04T00:22:34;9.00;99.90
37528;DHT22;23372;52.050;4.810;2023-01-04T00:25:00;9.00;99.90
37528;DHT22;23372;52.050;4.810;2023-01-04T00:27:26;9.00;99.90
37528;DHT22;23372;52.050;4.810;2023-01-04T00:29:51;9.00;99.90
37528;DHT22;23372;52.050;4.810;2023-01-04T00:32:17;9.00;99.90
37528;DHT22;23372;52.050;4.810;2023-01-04T00:34:42;9.10;99.90
37528;DHT22;23372;52.050;4.810;2023-01-04T00:37:08;9.10;99.90
37528;DHT22;23372;52.050;4.810;2023-01-04T00:39:34;9.10;99.90
37528;DHT22;23372;52.050;4.810;2023-01-04T00:41:59;9.10;99.90
37528;DHT22;23372;52.050;4.810;2023-01-04T00:44:30;9.10;99.90
37528;DHT22;23372;52.050;4.810;2023-01-04T00:46:58;9.20;99.90
37528;DHT22;23372;52.050;4.810;2023-01-04T00:49:24;9.20;99.90
37528;DHT22;23372;52.050;4.810;2023-01-04T00:51:50;9.20;99.90
37528;DHT22;23372;52.050;4.810;2023-01-04T00:54:15;9.20;99.90
37528;DHT22;23372;52.050;4.810;2023-01-04T00:56:42;9.30;99.90
37528;DHT22;23372;52.050;4.810;2023-01-04T00:59:11;9.30;99.90
37528;DHT22;23372;52.050;4.810;2023-01-04T01:01:38;9.30;99.90
37528;DHT22;23372;52.050;4.810;2023-01-04T01:04:04;9.30;99.90
37528;DHT22;23372;52.050;4.810;2023-01-04T01:06:31;9.40;99.90
37528;DHT22;23372;52.050;4.810;2023-01-04T01:08:58;9.40;99.90
37528;DHT22;23372;52.050;4.810;2023-01-04T01:11:24;9.50;99.90
37528;DHT22;23372;52.050;4.810;2023-01-04T01:13:50;9.50;99.90
37528;DHT22;23372;52.050;4.810;2023-01-04T01:16:18;9.50;99.90
37528;DHT22;23372;52.050;4.810;2023-01-04T01:18:44;9.50;99.90
37528;DHT22;23372;52.050;4.810;2023-01-04T01:21:24;9.60;99.90
37528;DHT22;23372;52.050;4.810;2023-01-04T01:23:51;9.60;99.90
37528;DHT22;23372;52.050;4.810;2023-01-04T01:26:20;9.60;99.90
37528;DHT22;23372;52.050;4.810;2023-01-04T01:28:47;9.70;99.90
37528;DHT22;23372;52.050;4.810;2023-01-04T01:31:20;9.70;99.90
37528;DHT22;23372;52.050;4.810;2023-01-04T01:33:48;9.70;99.90
37528;DHT22;23372;52.050;4.810;2023-01-04T01:36:15;9.70;99.90
37528;DHT22;23372;52.050;4.810;2023-01-04T01:38:41;9.80;99.90
37528;DHT22;23372;52.050;4.810;2023-01-04T01:41:20;9.70;99.90
37528;DHT22;23372;52.050;4.810;2023-01-04T01:46:38;9.80;99.90
37528;DHT22;23372;52.050;4.810;2023-01-04T01:49:21;9.80;99.90
37528;DHT22;23372;52.050;4.810;2023-01-04T01:51:49;9.90;99.90
37528;DHT22;23372;52.050;4.810;2023-01-04T01:54:25;9.90;99.90
37528;DHT22;23372;52.050;4.810;2023-01-04T01:56:57;9.90;99.90
37528;DHT22;23372;52.050;4.810;2023-01-04T01:59:23;9.90;99.90
37528;DHT22;23372;52.050;4.810;2023-01-04T02:01:49;9.90;99.90
37528;DHT22;23372;52.050;4.810;2023-01-04T02:04:15;10.00;99.90
37528;DHT22;23372;52.050;4.810;2023-01-04T02:06:46;9.90;99.90
37528;DHT22;23372;52.050;4.810;2023-01-04T02:09:13;10.00;99.90
37528;DHT22;23372;52.050;4.810;2023-01-04T02:11:38;10.00;99.90
37528;DHT22;23372;52.050;4.810;2023-01-04T02:14:06;10.00;99.90
37528;DHT22;23372;52.050;4.810;2023-01-04T02:28:15;10.20;99.90
37528;DHT22;23372;52.050;4.810;2023-01-04T02:30:53;10.20;99.90
37528;DHT22;23372;52.050;4.810;2023-01-04T02:33:37;10.20;99.90
37528;DHT22;23372;52.050;4.810;2023-01-04T02:36:22;10.30;99.90
37528;DHT22;23372;52.050;4.810;2023-01-04T02:41:28;10.30;99.90
37528;DHT22;23372;52.050;4.810;2023-01-04T02:46:59;10.30;99.90
37528;DHT22;23372;52.050;4.810;2023-01-04T02:49:26;10.40;99.90
37528;DHT22;23372;52.050;4.810;2023-01-04T02:52:10;10.30;99.90
37528;DHT22;23372;52.050;4.810;2023-01-04T02:54:37;10.30;99.90
37528;DHT22;23372;52.050;4.810;2023-01-04T03:11:06;10.40;99.90
37528;DHT22;23372;52.050;4.810;2023-01-04T03:13:52;10.50;99.90
37528;DHT22;23372;52.050;4.810;2023-01-04T03:16:21;10.40;99.90
37528;DHT22;23372;52.050;4.810;2023-01-04T03:18:51;10.50;99.90
37528;DHT22;23372;52.050;4.810;2023-01-04T03:21:19;10.50;99.90
37528;DHT22;23372;52.050;4.810;2023-01-04T03:23:49;10.50;99.90
37528;DHT22;23372;52.050;4.810;2023-01-04T03:26:40;10.50;99.90
37528;DHT22;23372;52.050;4.810;2023-01-04T03:29:38;10.60;99.90
37528;DHT22;23372;52.050;4.810;2023-01-04T03:32:38;10.60;99.90
37528;DHT22;23372;52.050;4.810;2023-01-04T03:35:32;10.60;99.90
37528;DHT22;23372;52.050;4.810;2023-01-04T03:38:07;10.50;99.90
37528;DHT22;23372;52.050;4.810;2023-01-04T03:40:59;10.50;99.90
37528;DHT22;23372;52.050;4.810;2023-01-04T03:43:53;10.60;99.90
37528;DHT22;23372;52.050;4.810;2023-01-04T03:46:48;10.60;99.90
37528;DHT22;23372;52.050;4.810;2023-01-04T03:52:04;10.60;99.90
37528;DHT22;23372;52.050;4.810;2023-01-04T03:54:36;10.70;99.90
37528;DHT22;23372;52.050;4.810;2023-01-04T03:57:04;10.70;99.90
37528;DHT22;23372;52.050;4.810;2023-01-04T03:59:33;10.70;99.90
37528;DHT22;23372;52.050;4.810;2023-01-04T04:01:59;10.70;99.90
37528;DHT22;23372;52.050;4.810;2023-01-04T04:04:25;10.70;99.90
37528;DHT22;23372;52.050;4.810;2023-01-04T04:07:09;10.70;99.90
37528;DHT22;23372;52.050;4.810;2023-01-04T04:09:53;10.70;99.90
37528;DHT22;23372;52.050;4.810;2023-01-04T04:12:18;10.80;99.90
37528;DHT22;23372;52.050;4.810;2023-01-04T04:14:44;10.70;99.90
37528;DHT22;23372;52.050;4.810;2023-01-04T04:17:09;10.80;99.90
37528;DHT22;23372;52.050;4.810;2023-01-04T04:19:35;10.80;99.90
37528;DHT22;23372;52.050;4.810;2023-01-04T04:22:00;10.80;99.90
37528;DHT22;23372;52.050;4.810;2023-01-04T04:24:26;10.80;99.90
37528;DHT22;23372;52.050;4.810;2023-01-04T04:26:53;10.80;99.90
37528;DHT22;23372;52.050;4.810;2023-01-04T04:29:19;10.90;99.90
37528;DHT22;23372;52.050;4.810;2023-01-04T04:31:45;10.90;99.90
37528;DHT22;23372;52.050;4.810;2023-01-04T04:34:11;10.90;99.90
37528;DHT22;23372;52.050;4.810;2023-01-04T04:36:36;10.90;99.90
37528;DHT22;23372;52.050;4.810;2023-01-04T04:39:02;10.90;99.90
37528;DHT22;23372;52.050;4.810;2023-01-04T04:41:28;10.90;99.90
37528;DHT22;23372;52.050;4.810;2023-01-04T04:44:11;10.90;99.90
37528;DHT22;23372;52.050;4.810;2023-01-04T04:46:37;10.90;99.90
37528;DHT22;23372;52.050;4.810;2023-01-04T04:49:03;11.00;99.90
37528;DHT22;23372;52.050;4.810;2023-01-04T04:51:29;10.90;99.90
37528;DHT22;23372;52.050;4.810;2023-01-04T04:53:55;10.90;99.90
37528;DHT22;23372;52.050;4.810;2023-01-04T04:56:20;10.90;99.90
37528;DHT22;23372;52.050;4.810;2023-01-04T04:58:47;10.90;99.90
37528;DHT22;23372;52.050;4.810;2023-01-04T05:01:12;10.90;99.90
37528;DHT22;23372;52.050;4.810;2023-01-04T05:03:38;10.90;99.90
37528;DHT22;23372;52.050;4.810;2023-01-04T05:06:04;10.90;99.90
37528;DHT22;23372;52.050;4.810;2023-01-04T05:08:29;10.90;99.90
37528;DHT22;23372;52.050;4.810;2023-01-04T05:10:55;10.90;99.90
37528;DHT22;23372;52.050;4.810;2023-01-04T05:13:21;10.80;99.90
37528;DHT22;23372;52.050;4.810;2023-01-04T05:15:49;10.80;99.90
37528;DHT22;23372;52.050;4.810;2023-01-04T05:18:17;10.80;99.90
37528;DHT22;23372;52.050;4.810;2023-01-04T05:20:43;10.90;99.90
37528;DHT22;23372;52.050;4.810;2023-01-04T05:23:11;10.90;99.90
37528;DHT22;23372;52.050;4.810;2023-01-04T05:25:37;10.90;99.90
37528;DHT22;23372;52.050;4.810;2023-01-04T05:28:03;10.90;99.90
37528;DHT22;23372;52.050;4.810;2023-01-04T05:30:29;10.90;99.90
37528;DHT22;23372;52.050;4.810;2023-01-04T05:33:13;10.90;99.90
37528;DHT22;23372;52.050;4.810;2023-01-04T05:35:39;10.90;99.90
37528;DHT22;23372;52.050;4.810;2023-01-04T05:38:04;10.90;99.90
37528;DHT22;23372;52.050;4.810;2023-01-04T05:40:30;11.00;99.90
37528;DHT22;23372;52.050;4.810;2023-01-04T05:42:56;11.00;99.90
37528;DHT22;23372;52.050;4.810;2023-01-04T05:45:21;11.00;99.90
37528;DHT22;23372;52.050;4.810;2023-01-04T05:47:51;11.00;99.90
37528;DHT22;23372;52.050;4.810;2023-01-04T05:50:18;11.10;99.90
37528;DHT22;23372;52.050;4.810;2023-01-04T05:52:44;11.00;99.90
37528;DHT22;23372;52.050;4.810;2023-01-04T05:55:10;11.00;99.90
37528;DHT22;23372;52.050;4.810;2023-01-04T05:57:36;11.10;99.90
37528;DHT22;23372;52.050;4.810;2023-01-04T06:00:03;11.10;99.90
37528;DHT22;23372;52.050;4.810;2023-01-04T06:02:29;11.10;99.90
37528;DHT22;23372;52.050;4.810;2023-01-04T06:04:55;11.10;99.90
37528;DHT22;23372;52.050;4.810;2023-01-04T06:07:21;11.10;99.90
37528;DHT22;23372;52.050;4.810;2023-01-04T06:09:47;11.10;99.90
37528;DHT22;23372;52.050;4.810;2023-01-04T06:12:13;11.20;99.90
37528;DHT22;23372;52.050;4.810;2023-01-04T06:14:39;11.20;99.90
37528;DHT22;23372;52.050;4.810;2023-01-04T06:17:06;11.20;99.90
37528;DHT22;23372;52.050;4.810;2023-01-04T06:19:32;11.30;99.90
37528;DHT22;23372;52.050;4.810;2023-01-04T06:21:57;11.20;99.90
37528;DHT22;23372;52.050;4.810;2023-01-04T06:24:23;11.30;99.90
37528;DHT22;23372;52.050;4.810;2023-01-04T06:26:49;11.30;99.90
37528;DHT22;23372;52.050;4.810;2023-01-04T06:29:14;11.30;99.90
37528;DHT22;23372;52.050;4.810;2023-01-04T06:31:40;11.30;99.90
37528;DHT22;23372;52.050;4.810;2023-01-04T06:34:06;11.30;99.90
37528;DHT22;23372;52.050;4.810;2023-01-04T06:36:32;11.30;99.90
37528;DHT22;23372;52.050;4.810;2023-01-04T06:38:58;11.30;99.90
37528;DHT22;23372;52.050;4.810;2023-01-04T06:41:25;11.30;99.90
37528;DHT22;23372;52.050;4.810;2023-01-04T06:43:50;11.30;99.90
37528;DHT22;23372;52.050;4.810;2023-01-04T06:46:16;11.30;99.90
37528;DHT22;23372;52.050;4.810;2023-01-04T06:48:42;11.30;99.90
37528;DHT22;23372;52.050;4.810;2023-01-04T06:51:07;11.20;99.90
37528;DHT22;23372;52.050;4.810;2023-01-04T06:53:33;11.30;99.90
37528;DHT22;23372;52.050;4.810;2023-01-04T06:55:59;11.30;99.90
37528;DHT22;23372;52.050;4.810;2023-01-04T06:58:24;11.30;99.90
37528;DHT22;23372;52.050;4.810;2023-01-04T07:00:50;11.30;99.90
37528;DHT22;23372;52.050;4.810;2023-01-04T07:03:16;11.30;99.90
37528;DHT22;23372;52.050;4.810;2023-01-04T07:05:43;11.30;99.90
37528;DHT22;23372;52.050;4.810;2023-01-04T07:08:09;11.30;99.90
37528;DHT22;23372;52.050;4.810;2023-01-04T07:10:35;11.30;99.90
37528;DHT22;23372;52.050;4.810;2023-01-04T07:13:01;11.30;99.90
37528;DHT22;23372;52.050;4.810;2023-01-04T07:15:26;11.30;99.90
37528;DHT22;23372;52.050;4.810;2023-01-04T07:17:52;11.20;99.90
37528;DHT22;23372;52.050;4.810;2023-01-04T07:20:18;11.30;99.90
37528;DHT22;23372;52.050;4.810;2023-01-04T07:22:43;11.20;99.90
37528;DHT22;23372;52.050;4.810;2023-01-04T07:25:09;11.20;99.90
37528;DHT22;23372;52.050;4.810;2023-01-04T07:27:34;11.30;99.90
37528;DHT22;23372;52.050;4.810;2023-01-04T07:30:00;11.30;99.90
37528;DHT22;23372;52.050;4.810;2023-01-04T07:32:25;11.30;99.90
37528;DHT22;23372;52.050;4.810;2023-01-04T07:34:51;11.30;99.90
37528;DHT22;23372;52.050;4.810;2023-01-04T07:37:17;11.20;99.90
37528;DHT22;23372;52.050;4.810;2023-01-04T07:39:42;11.30;99.90
37528;DHT22;23372;52.050;4.810;2023-01-04T07:42:11;11.30;99.90
37528;DHT22;23372;52.050;4.810;2023-01-04T07:44:36;11.20;99.90
37528;DHT22;23372;52.050;4.810;2023-01-04T07:47:03;11.30;99.90
37528;DHT22;23372;52.050;4.810;2023-01-04T07:49:29;11.30;99.90
37528;DHT22;23372;52.050;4.810;2023-01-04T07:51:54;11.30;99.90
37528;DHT22;23372;52.050;4.810;2023-01-04T07:54:20;11.30;99.90
37528;DHT22;23372;52.050;4.810;2023-01-04T07:56:46;11.30;99.90
37528;DHT22;23372;52.050;4.810;2023-01-04T07:59:13;11.40;99.90
37528;DHT22;23372;52.050;4.810;2023-01-04T08:01:40;11.40;99.90
37528;DHT22;23372;52.050;4.810;2023-01-04T08:04:07;11.30;99.90
37528;DHT22;23372;52.050;4.810;2023-01-04T08:06:34;11.40;99.90
37528;DHT22;23372;52.050;4.810;2023-01-04T08:09:00;11.30;99.90
37528;DHT22;23372;52.050;4.810;2023-01-04T08:11:26;11.40;99.90
37528;DHT22;23372;52.050;4.810;2023-01-04T08:13:52;11.40;99.90
37528;DHT22;23372;52.050;4.810;2023-01-04T08:16:40;11.40;99.90
37528;DHT22;23372;52.050;4.810;2023-01-04T08:19:15;11.40;99.90
37528;DHT22;23372;52.050;4.810;2023-01-04T08:21:42;11.50;99.90
37528;DHT22;23372;52.050;4.810;2023-01-04T08:24:13;11.40;99.90
37528;DHT22;23372;52.050;4.810;2023-01-04T08:26:39;11.50;99.90
37528;DHT22;23372;52.050;4.810;2023-01-04T08:29:04;11.50;99.90
37528;DHT22;23372;52.050;4.810;2023-01-04T08:31:31;11.50;99.90
37528;DHT22;23372;52.050;4.810;2023-01-04T08:33:59;11.50;99.90
37528;DHT22;23372;52.050;4.810;2023-01-04T08:36:28;11.50;99.90
37528;DHT22;23372;52.050;4.810;2023-01-04T08:38:56;11.50;99.90
37528;DHT22;23372;52.050;4.810;2023-01-04T08:41:22;11.60;99.90
37528;DHT22;23372;52.050;4.810;2023-01-04T08:43:48;11.60;99.90
37528;DHT22;23372;52.050;4.810;2023-01-04T08:46:13;11.60;99.90
37528;DHT22;23372;52.050;4.810;2023-01-04T08:48:39;11.60;99.90
37528;DHT22;23372;52.050;4.810;2023-01-04T08:51:08;11.70;99.90
37528;DHT22;23372;52.050;4.810;2023-01-04T08:53:35;11.70;99.90
37528;DHT22;23372;52.050;4.810;2023-01-04T08:56:01;11.80;99.90
37528;DHT22;23372;52.050;4.810;2023-01-04T08:58:28;11.80;99.90
37528;DHT22;23372;52.050;4.810;2023-01-04T09:00:59;11.80;99.90
37528;DHT22;23372;52.050;4.810;2023-01-04T09:03:26;11.80;99.90
37528;DHT22;23372;52.050;4.810;2023-01-04T09:05:52;11.90;99.90
37528;DHT22;23372;52.050;4.810;2023-01-04T09:08:17;11.90;99.90
37528;DHT22;23372;52.050;4.810;2023-01-04T09:10:43;11.90;99.90
37528;DHT22;23372;52.050;4.810;2023-01-04T09:13:08;11.90;99.90
37528;DHT22;23372;52.050;4.810;2023-01-04T09:15:34;12.00;99.90
37528;DHT22;23372;52.050;4.810;2023-01-04T09:17:59;12.00;99.90
37528;DHT22;23372;52.050;4.810;2023-01-04T09:20:26;12.00;99.90
37528;DHT22;23372;52.050;4.810;2023-01-04T09:22:52;12.00;99.90
37528;DHT22;23372;52.050;4.810;2023-01-04T09:25:17;12.00;99.90
37528;DHT22;23372;52.050;4.810;2023-01-04T09:27:43;12.10;99.90
37528;DHT22;23372;52.050;4.810;2023-01-04T09:30:09;12.10;99.90
37528;DHT22;23372;52.050;4.810;2023-01-04T09:32:35;12.10;99.90
37528;DHT22;23372;52.050;4.810;2023-01-04T09:35:01;12.10;99.90
37528;DHT22;23372;52.050;4.810;2023-01-04T09:37:26;12.10;99.90
37528;DHT22;23372;52.050;4.810;2023-01-04T09:39:53;12.10;99.90
37528;DHT22;23372;52.050;4.810;2023-01-04T09:42:29;12.10;99.90
37528;DHT22;23372;52.050;4.810;2023-01-04T09:45:00;12.10;99.90
37528;DHT22;23372;52.050;4.810;2023-01-04T09:47:42;12.10;99.90
37528;DHT22;23372;52.050;4.810;2023-01-04T09:50:26;12.10;99.90
37528;DHT22;23372;52.050;4.810;2023-01-04T09:55:31;12.20;99.90
37528;DHT22;23372;52.050;4.810;2023-01-04T09:58:03;12.20;99.90
37528;DHT22;23372;52.050;4.810;2023-01-04T10:00:34;12.20;99.90
37528;DHT22;23372;52.050;4.810;2023-01-04T10:05:39;12.20;99.90
37528;DHT22;23372;52.050;4.810;2023-01-04T10:08:13;12.20;99.90
37528;DHT22;23372;52.050;4.810;2023-01-04T10:16:35;12.20;99.90
37528;DHT22;23372;52.050;4.810;2023-01-04T10:21:51;12.20;99.90
37528;DHT22;23372;52.050;4.810;2023-01-04T10:27:10;12.30;99.90
37528;DHT22;23372;52.050;4.810;2023-01-04T10:29:39;12.30;99.90
37528;DHT22;23372;52.050;4.810;2023-01-04T10:35:01;12.30;99.90
37528;DHT22;23372;52.050;4.810;2023-01-04T10:37:37;12.30;99.90
37528;DHT22;23372;52.050;4.810;2023-01-04T10:40:12;12.30;99.90
37528;DHT22;23372;52.050;4.810;2023-01-04T10:51:02;12.30;99.90
37528;DHT22;23372;52.050;4.810;2023-01-04T10:56:27;12.30;99.90
37528;DHT22;23372;52.050;4.810;2023-01-04T11:04:41;12.40;99.90
37528;DHT22;23372;52.050;4.810;2023-01-04T11:07:14;12.40;99.90
37528;DHT22;23372;52.050;4.810;2023-01-04T11:10:14;12.40;99.90
37528;DHT22;23372;52.050;4.810;2023-01-04T11:12:41;12.50;99.90
37528;DHT22;23372;52.050;4.810;2023-01-04T11:15:07;12.50;99.90
37528;DHT22;23372;52.050;4.810;2023-01-04T11:17:34;12.50;99.90
37528;DHT22;23372;52.050;4.810;2023-01-04T11:20:00;12.50;99.90
37528;DHT22;23372;52.050;4.810;2023-01-04T11:22:37;12.60;99.90
37528;DHT22;23372;52.050;4.810;2023-01-04T11:25:10;12.70;99.90
37528;DHT22;23372;52.050;4.810;2023-01-04T11:27:57;12.70;99.90
37528;DHT22;23372;52.050;4.810;2023-01-04T11:30:30;12.70;99.90
37528;DHT22;23372;52.050;4.810;2023-01-04T11:33:16;12.80;99.90
37528;DHT22;23372;52.050;4.810;2023-01-04T11:35:47;12.70;99.90
37528;DHT22;23372;52.050;4.810;2023-01-04T11:38:17;12.80;99.90
37528;DHT22;23372;52.050;4.810;2023-01-04T11:41:02;12.80;99.90
37528;DHT22;23372;52.050;4.810;2023-01-04T11:43:38;12.80;99.90
37528;DHT22;23372;52.050;4.810;2023-01-04T11:46:20;12.80;99.90
37528;DHT22;23372;52.050;4.810;2023-01-04T11:48:47;12.80;99.90
37528;DHT22;23372;52.050;4.810;2023-01-04T11:56:37;12.70;99.90
37528;DHT22;23372;52.050;4.810;2023-01-04T11:59:15;12.80;99.90
37528;DHT22;23372;52.050;4.810;2023-01-04T12:01:47;12.70;99.90
37528;DHT22;23372;52.050;4.810;2023-01-04T12:04:14;12.70;99.90
37528;DHT22;23372;52.050;4.810;2023-01-04T12:06:54;12.70;99.90
37528;DHT22;23372;52.050;4.810;2023-01-04T12:09:21;12.80;99.90
37528;DHT22;23372;52.050;4.810;2023-01-04T12:11:50;12.70;99.90
37528;DHT22;23372;52.050;4.810;2023-01-04T12:14:20;12.70;99.90
37528;DHT22;23372;52.050;4.810;2023-01-04T12:19:21;12.90;99.90
37528;DHT22;23372;52.050;4.810;2023-01-04T12:21:56;12.80;99.90
37528;DHT22;23372;52.050;4.810;2023-01-04T12:24:30;12.80;99.90
37528;DHT22;23372;52.050;4.810;2023-01-04T12:26:57;12.80;99.90
37528;DHT22;23372;52.050;4.810;2023-01-04T12:32:36;12.80;99.90
37528;DHT22;23372;52.050;4.810;2023-01-04T12:34:41;12.70;99.90
37528;DHT22;23372;52.050;4.810;2023-01-04T12:37:08;12.80;99.90
37528;DHT22;23372;52.050;4.810;2023-01-04T12:39:41;12.80;99.90
37528;DHT22;23372;52.050;4.810;2023-01-04T12:42:09;12.80;99.90
37528;DHT22;23372;52.050;4.810;2023-01-04T12:50:12;12.70;99.90
37528;DHT22;23372;52.050;4.810;2023-01-04T12:52:52;12.70;99.90
37528;DHT22;23372;52.050;4.810;2023-01-04T12:57:56;12.70;99.90
37528;DHT22;23372;52.050;4.810;2023-01-04T13:01:06;12.70;99.90
37528;DHT22;23372;52.050;4.810;2023-01-04T13:08:11;12.60;99.90
37528;DHT22;23372;52.050;4.810;2023-01-04T13:13:36;12.60;99.90
37528;DHT22;23372;52.050;4.810;2023-01-04T13:18:51;12.60;99.90
37528;DHT22;23372;52.050;4.810;2023-01-04T13:21:27;12.60;99.90
37528;DHT22;23372;52.050;4.810;2023-01-04T13:23:59;12.60;99.90
37528;DHT22;23372;52.050;4.810;2023-01-04T13:26:35;12.60;99.90
37528;DHT22;23372;52.050;4.810;2023-01-04T13:29:27;12.50;99.90
37528;DHT22;23372;52.050;4.810;2023-01-04T13:31:57;12.50;99.90
37528;DHT22;23372;52.050;4.810;2023-01-04T13:39:59;12.60;99.90
37528;DHT22;23372;52.050;4.810;2023-01-04T13:42:34;12.60;99.90
37528;DHT22;23372;52.050;4.810;2023-01-04T13:47:42;12.60;99.90
37528;DHT22;23372;52.050;4.810;2023-01-04T13:50:28;12.60;99.90
37528;DHT22;23372;52.050;4.810;2023-01-04T13:52:54;12.60;99.90
37528;DHT22;23372;52.050;4.810;2023-01-04T13:55:25;12.60;99.90
37528;DHT22;23372;52.050;4.810;2023-01-04T13:57:58;12.60;99.90
37528;DHT22;23372;52.050;4.810;2023-01-04T14:00:28;12.60;99.90
37528;DHT22;23372;52.050;4.810;2023-01-04T14:05:36;12.60;99.90
37528;DHT22;23372;52.050;4.810;2023-01-04T14:08:08;12.60;99.90
37528;DHT22;23372;52.050;4.810;2023-01-04T14:10:35;12.60;99.90
37528;DHT22;23372;52.050;4.810;2023-01-04T14:13:02;12.60;99.90
37528;DHT22;23372;52.050;4.810;2023-01-04T14:15:28;12.60;99.90
37528;DHT22;23372;52.050;4.810;2023-01-04T14:17:58;12.60;99.90
37528;DHT22;23372;52.050;4.810;2023-01-04T14:25:37;12.70;99.90
37528;DHT22;23372;52.050;4.810;2023-01-04T14:36:27;12.70;99.90
37528;DHT22;23372;52.050;4.810;2023-01-04T14:41:56;12.70;99.90
37528;DHT22;23372;52.050;4.810;2023-01-04T14:44:26;12.80;99.90
37528;DHT22;23372;52.050;4.810;2023-01-04T14:46:57;12.70;99.90
37528;DHT22;23372;52.050;4.810;2023-01-04T14:49:23;12.70;99.90
37528;DHT22;23372;52.050;4.810;2023-01-04T14:54:20;12.70;99.90
37528;DHT22;23372;52.050;4.810;2023-01-04T14:56:46;12.70;99.90
37528;DHT22;23372;52.050;4.810;2023-01-04T14:59:12;12.70;99.90
37528;DHT22;23372;52.050;4.810;2023-01-04T15:01:38;12.70;99.90
37528;DHT22;23372;52.050;4.810;2023-01-04T15:04:04;12.60;99.90
37528;DHT22;23372;52.050;4.810;2023-01-04T15:06:31;12.70;99.90
37528;DHT22;23372;52.050;4.810;2023-01-04T15:08:56;12.60;99.90
37528;DHT22;23372;52.050;4.810;2023-01-04T15:11:22;12.60;99.90
37528;DHT22;23372;52.050;4.810;2023-01-04T15:13:47;12.60;99.90
37528;DHT22;23372;52.050;4.810;2023-01-04T15:16:15;12.60;99.90
37528;DHT22;23372;52.050;4.810;2023-01-04T15:18:42;12.60;99.90
37528;DHT22;23372;52.050;4.810;2023-01-04T15:21:09;12.60;99.90
37528;DHT22;23372;52.050;4.810;2023-01-04T15:23:35;12.60;99.90
37528;DHT22;23372;52.050;4.810;2023-01-04T15:26:05;12.60;99.90
37528;DHT22;23372;52.050;4.810;2023-01-04T15:28:31;12.50;99.90
37528;DHT22;23372;52.050;4.810;2023-01-04T15:30:57;12.50;99.90
37528;DHT22;23372;52.050;4.810;2023-01-04T15:33:22;12.40;99.90
37528;DHT22;23372;52.050;4.810;2023-01-04T15:36:00;12.50;99.90
37528;DHT22;23372;52.050;4.810;2023-01-04T15:38:26;12.40;99.90
37528;DHT22;23372;52.050;4.810;2023-01-04T15:41:02;12.50;99.90
37528;DHT22;23372;52.050;4.810;2023-01-04T15:43:28;12.50;99.90
37528;DHT22;23372;52.050;4.810;2023-01-04T15:45:53;12.50;99.90
37528;DHT22;23372;52.050;4.810;2023-01-04T15:48:19;12.50;99.90
37528;DHT22;23372;52.050;4.810;2023-01-04T15:50:44;12.50;99.90
37528;DHT22;23372;52.050;4.810;2023-01-04T15:53:10;12.50;99.90
37528;DHT22;23372;52.050;4.810;2023-01-04T15:55:36;12.40;99.90
37528;DHT22;23372;52.050;4.810;2023-01-04T15:58:03;12.40;99.90
37528;DHT22;23372;52.050;4.810;2023-01-04T16:00:29;12.40;99.90
37528;DHT22;23372;52.050;4.810;2023-01-04T16:02:55;12.40;99.90
37528;DHT22;23372;52.050;4.810;2023-01-04T16:05:21;12.40;99.90
37528;DHT22;23372;52.050;4.810;2023-01-04T16:07:47;12.40;99.90
37528;DHT22;23372;52.050;4.810;2023-01-04T16:10:13;12.30;99.90
37528;DHT22;23372;52.050;4.810;2023-01-04T16:12:39;12.30;99.90
37528;DHT22;23372;52.050;4.810;2023-01-04T16:15:14;12.30;99.90
37528;DHT22;23372;52.050;4.810;2023-01-04T16:17:40;12.30;99.90
37528;DHT22;23372;52.050;4.810;2023-01-04T16:20:07;12.30;99.90
37528;DHT22;23372;52.050;4.810;2023-01-04T16:22:33;12.30;99.90
37528;DHT22;23372;52.050;4.810;2023-01-04T16:24:58;12.30;99.90
37528;DHT22;23372;52.050;4.810;2023-01-04T16:27:24;12.30;99.90
37528;DHT22;23372;52.050;4.810;2023-01-04T16:29:50;12.30;99.90
37528;DHT22;23372;52.050;4.810;2023-01-04T16:32:15;12.30;99.90
37528;DHT22;23372;52.050;4.810;2023-01-04T16:34:41;12.20;99.90
37528;DHT22;23372;52.050;4.810;2023-01-04T16:37:07;12.20;99.90
37528;DHT22;23372;52.050;4.810;2023-01-04T16:39:32;12.20;99.90
37528;DHT22;23372;52.050;4.810;2023-01-04T16:41:58;12.10;99.90
37528;DHT22;23372;52.050;4.810;2023-01-04T16:44:23;12.20;99.90
37528;DHT22;23372;52.050;4.810;2023-01-04T16:46:49;12.10;99.90
37528;DHT22;23372;52.050;4.810;2023-01-04T16:49:16;12.10;99.90
37528;DHT22;23372;52.050;4.810;2023-01-04T16:51:43;12.10;99.90
37528;DHT22;23372;52.050;4.810;2023-01-04T16:54:13;12.10;99.90
37528;DHT22;23372;52.050;4.810;2023-01-04T16:56:39;12.10;99.90
37528;DHT22;23372;52.050;4.810;2023-01-04T16:59:06;12.10;99.90
37528;DHT22;23372;52.050;4.810;2023-01-04T17:01:35;12.20;99.90
37528;DHT22;23372;52.050;4.810;2023-01-04T17:04:05;12.10;99.90
37528;DHT22;23372;52.050;4.810;2023-01-04T17:06:41;12.10;99.90
37528;DHT22;23372;52.050;4.810;2023-01-04T17:09:14;12.20;99.90
37528;DHT22;23372;52.050;4.810;2023-01-04T17:11:40;12.20;99.90
37528;DHT22;23372;52.050;4.810;2023-01-04T17:14:06;12.20;99.90
37528;DHT22;23372;52.050;4.810;2023-01-04T17:16:33;12.20;99.90
37528;DHT22;23372;52.050;4.810;2023-01-04T17:18:58;12.20;99.90
37528;DHT22;23372;52.050;4.810;2023-01-04T17:21:26;12.10;99.90
37528;DHT22;23372;52.050;4.810;2023-01-04T17:23:54;12.10;99.90
37528;DHT22;23372;52.050;4.810;2023-01-04T17:26:23;12.10;99.90
37528;DHT22;23372;52.050;4.810;2023-01-04T17:28:49;12.00;99.90
37528;DHT22;23372;52.050;4.810;2023-01-04T17:31:20;12.00;99.90
37528;DHT22;23372;52.050;4.810;2023-01-04T17:33:47;12.00;99.90
37528;DHT22;23372;52.050;4.810;2023-01-04T17:36:14;12.00;99.90
37528;DHT22;23372;52.050;4.810;2023-01-04T17:38:40;12.00;99.90
37528;DHT22;23372;52.050;4.810;2023-01-04T17:43:36;12.00;99.90
37528;DHT22;23372;52.050;4.810;2023-01-04T17:46:03;12.00;99.90
37528;DHT22;23372;52.050;4.810;2023-01-04T17:48:30;12.00;99.90
37528;DHT22;23372;52.050;4.810;2023-01-04T17:50:59;12.00;99.90
37528;DHT22;23372;52.050;4.810;2023-01-04T17:53:28;12.00;99.90
37528;DHT22;23372;52.050;4.810;2023-01-04T17:55:53;12.00;99.90
37528;DHT22;23372;52.050;4.810;2023-01-04T17:58:19;12.10;99.90